createdAt,value
2018-12-10T00:00:51.187Z,3.63
2018-12-10T00:03:24.917Z,3.63
2018-12-10T00:05:53.248Z,3.64
2018-12-10T00:08:21.761Z,3.79
2018-12-10T00:10:50.222Z,3.72
2018-12-10T00:13:18.745Z,3.69
2018-12-10T00:15:47.310Z,3.66
2018-12-10T00:18:15.629Z,3.70
2018-12-10T00:20:44.145Z,3.81
2018-12-10T00:23:12.644Z,3.69
2018-12-10T00:25:41.103Z,3.70
2018-12-10T00:28:09.613Z,3.61
2018-12-10T00:30:38.085Z,3.58
2018-12-10T00:33:06.581Z,3.59
2018-12-10T00:35:35.037Z,3.53
2018-12-10T00:38:03.663Z,3.56
2018-12-10T00:40:31.973Z,3.53
2018-12-10T00:43:00.305Z,3.50
2018-12-10T00:45:28.958Z,3.50
2018-12-10T00:47:57.297Z,3.45
2018-12-10T00:50:25.601Z,3.40
2018-12-10T00:52:53.906Z,3.34
2018-12-10T00:55:22.922Z,3.29
2018-12-10T00:57:51.361Z,3.31
2018-12-10T01:00:19.910Z,3.33
2018-12-10T01:02:48.349Z,3.34
2018-12-10T01:05:16.861Z,3.44
2018-12-10T01:07:45.185Z,3.56
2018-12-10T01:10:13.797Z,3.55
2018-12-10T01:12:42.270Z,3.58
2018-12-10T01:15:10.889Z,3.55
2018-12-10T01:17:39.221Z,3.51
2018-12-10T01:20:07.929Z,3.48
2018-12-10T01:22:36.685Z,3.46
2018-12-10T01:25:05.338Z,3.46
2018-12-10T01:27:34.166Z,3.46
2018-12-10T01:30:02.693Z,3.46
2018-12-10T01:32:31.143Z,3.42
2018-12-10T01:34:59.650Z,3.48
2018-12-10T01:37:28.353Z,3.47
2018-12-10T01:39:57.125Z,3.45
2018-12-10T01:42:25.425Z,3.46
2018-12-10T01:44:53.750Z,3.45
2018-12-10T01:47:22.034Z,3.53
2018-12-10T01:49:50.545Z,3.47
2018-12-10T01:52:18.857Z,3.43
2018-12-10T01:54:47.498Z,3.39
2018-12-10T01:57:15.989Z,3.27
2018-12-10T01:59:44.458Z,3.27
2018-12-10T02:02:12.942Z,3.21
2018-12-10T02:04:41.265Z,3.18
2018-12-10T02:07:09.913Z,3.22
2018-12-10T02:09:38.197Z,3.15
2018-12-10T02:12:06.509Z,3.06
2018-12-10T02:14:34.813Z,2.96
2018-12-10T02:17:03.132Z,2.98
2018-12-10T02:19:31.438Z,3.02
2018-12-10T02:21:59.749Z,3.11
2018-12-10T02:24:28.051Z,3.09
2018-12-10T02:26:56.393Z,3.01
2018-12-10T02:29:24.685Z,3.07
2018-12-10T02:31:53.011Z,3.02
2018-12-10T02:34:21.312Z,3.16
2018-12-10T02:36:49.618Z,3.19
2018-12-10T02:39:18.131Z,3.24
2018-12-10T02:41:47.121Z,3.34
2018-12-10T02:44:15.573Z,3.31
2018-12-10T02:46:44.008Z,3.26
2018-12-10T02:49:12.538Z,3.21
2018-12-10T02:51:41.043Z,3.30
2018-12-10T02:54:09.525Z,3.29
2018-12-10T02:56:38.016Z,3.15
2018-12-10T02:59:06.473Z,3.12
2018-12-10T03:01:34.805Z,2.88
2018-12-10T03:04:03.126Z,2.75
2018-12-10T03:06:31.463Z,2.64
2018-12-10T03:08:59.881Z,2.57
2018-12-10T03:11:28.360Z,2.54
2018-12-10T03:13:56.873Z,2.63
2018-12-10T03:16:25.326Z,2.57
2018-12-10T03:18:53.637Z,2.55
2018-12-10T03:21:21.961Z,2.49
2018-12-10T03:23:50.281Z,2.43
2018-12-10T03:26:18.741Z,2.40
2018-12-10T03:28:47.302Z,2.27
2018-12-10T03:31:15.601Z,2.19
2018-12-10T03:33:44.236Z,2.24
2018-12-10T03:36:12.841Z,2.21
2018-12-10T03:38:41.181Z,2.25
2018-12-10T03:41:09.494Z,2.30
2018-12-10T03:43:38.125Z,2.32
2018-12-10T03:46:06.609Z,2.30
2018-12-10T03:48:35.043Z,2.56
2018-12-10T03:51:03.342Z,2.64
2018-12-10T03:53:31.679Z,2.74
2018-12-10T03:55:59.988Z,2.78
2018-12-10T03:58:28.519Z,2.84
2018-12-10T04:00:56.829Z,2.77
2018-12-10T04:03:25.481Z,2.75
2018-12-10T04:05:53.942Z,2.79
2018-12-10T04:08:22.440Z,2.80
2018-12-10T04:10:50.913Z,2.78
2018-12-10T04:13:19.399Z,2.80
2018-12-10T04:15:47.862Z,2.81
2018-12-10T04:18:16.379Z,2.83
2018-12-10T04:20:44.821Z,2.84
2018-12-10T04:23:13.142Z,2.79
2018-12-10T04:25:41.485Z,2.86
2018-12-10T04:28:09.796Z,2.85
2018-12-10T04:30:38.249Z,2.85
2018-12-10T04:33:06.548Z,2.84
2018-12-10T04:35:35.223Z,2.86
2018-12-10T04:38:04.727Z,2.93
2018-12-10T04:40:33.217Z,3.01
2018-12-10T04:43:17.565Z,3.00
2018-12-10T04:45:57.414Z,2.97
2018-12-10T04:48:26.661Z,2.95
2018-12-10T04:50:54.976Z,3.01
2018-12-10T04:53:23.272Z,2.96
2018-12-10T04:55:52.106Z,3.10
2018-12-10T04:58:20.397Z,3.05
2018-12-10T05:00:48.722Z,3.14
2018-12-10T05:03:21.422Z,3.03
2018-12-10T05:05:49.740Z,3.07
2018-12-10T05:08:18.242Z,3.00
2018-12-10T05:10:46.571Z,2.98
2018-12-10T05:13:15.205Z,3.04
2018-12-10T05:15:43.702Z,3.07
2018-12-10T05:18:11.993Z,3.06
2018-12-10T05:20:40.653Z,3.04
2018-12-10T05:23:09.131Z,3.04
2018-12-10T05:25:37.464Z,3.13
2018-12-10T05:28:06.104Z,3.12
2018-12-10T05:30:34.601Z,3.16
2018-12-10T05:33:03.256Z,3.10
2018-12-10T05:35:32.033Z,2.98
2018-12-10T05:38:00.603Z,2.90
2018-12-10T05:40:29.071Z,2.90
2018-12-10T05:42:57.495Z,2.93
2018-12-10T05:45:26.008Z,2.84
2018-12-10T05:47:54.457Z,2.79
2018-12-10T05:50:22.749Z,2.80
2018-12-10T05:52:51.409Z,2.77
2018-12-10T05:55:19.930Z,2.70
2018-12-10T05:57:48.261Z,2.74
2018-12-10T06:00:16.873Z,2.75
2018-12-10T06:02:45.365Z,2.70
2018-12-10T06:05:13.945Z,2.73
2018-12-10T06:07:42.331Z,2.71
2018-12-10T06:10:10.624Z,2.67
2018-12-10T06:12:38.922Z,2.64
2018-12-10T06:15:07.881Z,2.60
2018-12-10T06:17:36.265Z,2.59
2018-12-10T06:20:05.365Z,2.58
2018-12-10T06:22:33.910Z,2.51
2018-12-10T06:25:03.328Z,2.34
2018-12-10T06:27:32.820Z,2.26
2018-12-10T06:30:04.173Z,2.19
2018-12-10T06:32:32.498Z,2.21
2018-12-10T06:35:01.245Z,2.18
2018-12-10T06:37:37.388Z,2.17
2018-12-10T06:40:00.061Z,2.19
2018-12-10T06:42:28.384Z,2.18
2018-12-10T06:44:56.678Z,2.16
2018-12-10T06:47:25.226Z,2.31
2018-12-10T06:49:53.774Z,2.27
2018-12-10T06:52:22.156Z,2.20
2018-12-10T06:54:50.473Z,2.31
2018-12-10T06:57:18.798Z,2.24
2018-12-10T06:59:47.113Z,2.21
2018-12-10T07:02:15.441Z,2.12
2018-12-10T07:04:44.069Z,2.08
2018-12-10T07:07:12.533Z,2.08
2018-12-10T07:09:41.032Z,2.10
2018-12-10T07:12:09.633Z,2.10
2018-12-10T07:14:37.997Z,2.15
2018-12-10T07:17:06.461Z,2.35
2018-12-10T07:19:34.797Z,2.22
2018-12-10T07:22:03.481Z,2.15
2018-12-10T07:24:32.942Z,2.29
2018-12-10T07:27:01.413Z,2.25
2018-12-10T07:29:29.918Z,2.25
2018-12-10T07:31:58.389Z,2.15
2018-12-10T07:34:26.834Z,2.13
2018-12-10T07:36:55.861Z,2.12
2018-12-10T07:39:24.186Z,2.11
2018-12-10T07:41:52.813Z,2.16
2018-12-10T07:44:21.317Z,2.24
2018-12-10T07:46:49.774Z,2.25
2018-12-10T07:49:18.280Z,2.25
2018-12-10T07:51:46.783Z,2.23
2018-12-10T07:54:15.126Z,2.28
2018-12-10T07:56:43.457Z,2.25
2018-12-10T07:59:12.200Z,2.33
2018-12-10T08:01:40.658Z,2.46
2018-12-10T08:04:09.202Z,2.41
2018-12-10T08:06:37.529Z,2.49
2018-12-10T08:09:07.151Z,2.48
2018-12-10T08:11:36.158Z,2.66
2018-12-10T08:14:04.458Z,2.74
2018-12-10T08:16:33.114Z,2.77
2018-12-10T08:19:01.421Z,2.78
2018-12-10T08:21:30.073Z,2.81
2018-12-10T08:23:58.385Z,2.81
2018-12-10T08:26:26.697Z,2.82
2018-12-10T08:28:58.645Z,2.81
2018-12-10T08:31:25.555Z,2.72
2018-12-10T08:33:54.001Z,2.79
2018-12-10T08:36:22.505Z,2.94
2018-12-10T08:38:50.985Z,2.78
2018-12-10T08:41:19.490Z,2.75
2018-12-10T08:43:47.920Z,2.71
2018-12-10T08:46:16.289Z,2.65
2018-12-10T08:48:44.890Z,2.69
2018-12-10T08:51:14.029Z,2.80
2018-12-10T08:53:42.397Z,2.80
2018-12-10T08:56:10.878Z,2.85
2018-12-10T08:58:39.165Z,2.69
2018-12-10T09:01:07.490Z,2.75
2018-12-10T09:03:36.142Z,2.66
2018-12-10T09:06:04.806Z,2.73
2018-12-10T09:08:33.274Z,2.86
2018-12-10T09:11:01.789Z,2.76
2018-12-10T09:13:30.222Z,2.95
2018-12-10T09:15:58.533Z,2.91
2018-12-10T09:18:26.851Z,2.93
2018-12-10T09:20:55.625Z,2.83
2018-12-10T09:23:24.178Z,3.12
2018-12-10T09:25:52.477Z,3.11
2018-12-10T09:28:21.142Z,2.91
2018-12-10T09:30:49.475Z,3.08
2018-12-10T09:33:18.626Z,3.00
2018-12-10T09:35:47.087Z,2.88
2018-12-10T09:38:15.417Z,2.78
2018-12-10T09:40:43.722Z,2.73
2018-12-10T09:43:12.489Z,2.50
2018-12-10T09:45:40.914Z,2.36
2018-12-10T09:48:09.505Z,2.39
2018-12-10T09:50:37.993Z,2.45
2018-12-10T09:53:06.641Z,2.42
2018-12-10T09:55:35.441Z,2.34
2018-12-10T09:58:03.782Z,2.42
2018-12-10T10:00:32.397Z,2.49
2018-12-10T10:03:00.894Z,2.44
2018-12-10T10:05:29.369Z,2.42
2018-12-10T10:07:57.862Z,2.42
2018-12-10T10:10:26.170Z,2.31
2018-12-10T10:12:57.902Z,2.29
2018-12-10T10:15:26.381Z,2.36
2018-12-10T10:17:54.697Z,2.45
2018-12-10T10:20:23.617Z,2.62
2018-12-10T10:22:52.798Z,2.59
2018-12-10T10:25:21.354Z,2.79
2018-12-10T10:27:49.803Z,2.79
2018-12-10T10:30:18.150Z,2.84
2018-12-10T10:32:46.583Z,3.19
2018-12-10T10:35:14.911Z,3.36
2018-12-10T10:37:43.216Z,3.16
2018-12-10T10:40:11.726Z,2.97
2018-12-10T10:42:40.034Z,2.97
2018-12-10T10:45:08.806Z,2.93
2018-12-10T10:47:37.239Z,2.87
2018-12-10T10:50:07.008Z,2.98
2018-12-10T10:52:35.829Z,3.05
2018-12-10T10:55:04.785Z,2.95
2018-12-10T10:57:33.713Z,3.00
2018-12-10T11:00:03.112Z,3.15
2018-12-10T11:02:36.952Z,3.25
2018-12-10T11:05:05.722Z,3.40
2018-12-10T11:07:34.237Z,3.48
2018-12-10T11:10:02.585Z,3.46
2018-12-10T11:12:30.913Z,3.61
2018-12-10T11:14:59.241Z,3.49
2018-12-10T11:17:28.110Z,3.63
2018-12-10T11:19:56.641Z,3.68
2018-12-10T11:22:25.431Z,3.55
2018-12-10T11:24:54.113Z,3.47
2018-12-10T11:27:22.420Z,3.59
2018-12-10T11:29:51.077Z,3.92
2018-12-10T11:32:19.572Z,4.07
2018-12-10T11:34:47.974Z,3.96
2018-12-10T11:37:16.301Z,3.91
2018-12-10T11:39:45.214Z,3.82
2018-12-10T11:42:13.539Z,3.81
2018-12-10T11:44:41.858Z,3.93
2018-12-10T11:47:13.186Z,5.58
2018-12-10T11:49:40.673Z,5.75
2018-12-10T11:52:09.021Z,5.34
2018-12-10T11:54:37.382Z,4.38
2018-12-10T11:57:05.705Z,4.18
2018-12-10T11:59:34.373Z,3.98
2018-12-10T12:02:02.703Z,3.93
2018-12-10T12:04:31.003Z,3.89
2018-12-10T12:06:59.353Z,3.95
2018-12-10T12:11:55.269Z,4.01
2018-12-10T12:14:23.689Z,4.08
2018-12-10T12:16:52.033Z,4.03
2018-12-10T12:19:20.818Z,4.14
2018-12-10T12:21:49.197Z,4.19
2018-12-10T12:24:17.654Z,4.36
2018-12-10T12:26:46.157Z,4.76
2018-12-10T12:29:14.465Z,5.17
2018-12-10T12:31:43.145Z,5.17
2018-12-10T12:34:11.465Z,5.17
2018-12-10T12:36:40.085Z,5.12
2018-12-10T12:39:08.577Z,5.60
2018-12-10T12:41:36.906Z,5.63
2018-12-10T12:44:05.561Z,5.57
2018-12-10T12:46:33.882Z,5.83
2018-12-10T12:49:02.493Z,6.07
2018-12-10T12:51:30.824Z,8.77
2018-12-10T12:53:59.463Z,10.29
2018-12-10T12:56:28.429Z,13.31
2018-12-10T12:58:57.685Z,12.85
2018-12-10T13:01:26.368Z,16.01
2018-12-10T13:03:54.928Z,15.32
2018-12-10T13:06:23.261Z,16.10
2018-12-10T13:08:51.966Z,15.49
2018-12-10T13:11:20.350Z,16.58
2018-12-10T13:13:48.854Z,16.28
2018-12-10T13:16:17.305Z,15.21
2018-12-10T13:18:45.805Z,14.45
2018-12-10T13:21:14.270Z,16.19
2018-12-10T13:23:42.594Z,13.84
2018-12-10T13:26:10.901Z,14.46
2018-12-10T13:28:39.253Z,10.84
2018-12-10T13:31:07.686Z,12.84
2018-12-10T13:33:36.189Z,14.10
2018-12-10T13:36:07.297Z,14.18
2018-12-10T13:38:36.925Z,13.78
2018-12-10T13:41:05.461Z,12.17
2018-12-10T13:43:33.797Z,12.02
2018-12-10T13:46:02.705Z,11.04
2018-12-10T13:48:31.097Z,8.52
2018-12-10T13:50:59.385Z,6.59
2018-12-10T13:53:27.697Z,6.04
2018-12-10T13:55:56.021Z,5.75
2018-12-10T13:58:24.362Z,5.51
2018-12-10T14:00:52.683Z,5.50
2018-12-10T14:03:21.589Z,5.87
2018-12-10T14:05:50.042Z,5.76
2018-12-10T14:08:18.359Z,5.75
2018-12-10T14:10:47.064Z,5.29
2018-12-10T14:13:15.412Z,5.18
2018-12-10T14:15:43.982Z,4.99
2018-12-10T14:18:12.299Z,4.87
2018-12-10T14:20:41.049Z,4.79
2018-12-10T14:23:09.510Z,4.68
2018-12-10T14:25:37.841Z,4.74
2018-12-10T14:28:06.145Z,4.63
2018-12-10T14:30:34.865Z,4.72
2018-12-10T14:33:03.314Z,4.59
2018-12-10T14:35:31.809Z,4.71
2018-12-10T14:38:00.272Z,4.59
2018-12-10T14:40:28.780Z,4.56
2018-12-10T14:42:58.013Z,4.51
2018-12-10T14:45:26.898Z,4.52
2018-12-10T14:47:56.609Z,4.53
2018-12-10T14:50:25.131Z,4.37
2018-12-10T14:52:53.725Z,4.27
2018-12-10T14:55:22.234Z,4.23
2018-12-10T14:57:50.574Z,4.27
2018-12-10T15:00:19.297Z,4.41
2018-12-10T15:02:47.677Z,4.28
2018-12-10T15:05:16.653Z,4.24
2018-12-10T15:07:45.223Z,4.33
2018-12-10T15:10:13.633Z,4.04
2018-12-10T15:12:42.087Z,3.65
2018-12-10T15:15:11.610Z,3.45
2018-12-10T15:17:39.961Z,3.25
2018-12-10T15:20:16.249Z,3.16
2018-12-10T15:22:44.594Z,3.08
2018-12-10T15:25:12.918Z,3.02
2018-12-10T15:27:41.245Z,3.04
2018-12-10T15:30:11.442Z,3.04
2018-12-10T15:32:39.821Z,2.92
2018-12-10T15:35:09.215Z,2.81
2018-12-10T15:37:37.534Z,2.79
2018-12-10T15:40:06.946Z,2.68
2018-12-10T15:42:35.288Z,2.72
2018-12-10T15:45:03.878Z,2.70
2018-12-10T15:47:32.209Z,2.68
2018-12-10T15:50:00.521Z,2.49
2018-12-10T15:52:28.857Z,2.60
2018-12-10T15:54:57.172Z,2.64
2018-12-10T15:57:25.512Z,2.55
2018-12-10T15:59:53.801Z,2.63
2018-12-10T16:02:22.444Z,2.59
2018-12-10T16:04:50.766Z,2.57
2018-12-10T16:07:19.111Z,2.68
2018-12-10T16:09:47.545Z,2.45
2018-12-10T16:12:16.611Z,2.42
2018-12-10T16:14:44.950Z,2.44
2018-12-10T16:17:13.363Z,2.37
2018-12-10T16:19:42.469Z,2.31
2018-12-10T16:22:10.779Z,2.40
2018-12-10T16:24:39.357Z,2.36
2018-12-10T16:27:07.889Z,2.33
2018-12-10T16:29:36.309Z,2.41
2018-12-10T16:32:04.637Z,2.38
2018-12-10T16:34:33.303Z,2.39
2018-12-10T16:37:02.260Z,2.32
2018-12-10T16:39:30.607Z,2.44
2018-12-10T16:41:59.661Z,2.32
2018-12-10T16:44:28.244Z,2.38
2018-12-10T16:46:56.566Z,2.35
2018-12-10T16:49:24.897Z,2.34
2018-12-10T16:51:53.222Z,2.25
2018-12-10T16:54:21.562Z,2.13
2018-12-10T16:56:49.870Z,2.06
2018-12-10T16:59:18.623Z,1.98
2018-12-10T17:01:47.151Z,1.96
2018-12-10T17:04:16.060Z,1.99
2018-12-10T17:06:44.547Z,2.06
2018-12-10T17:09:13.693Z,2.08
2018-12-10T17:11:42.635Z,2.07
2018-12-10T17:14:11.065Z,2.07
2018-12-10T17:16:41.161Z,2.22
2018-12-10T17:19:09.484Z,2.24
2018-12-10T17:21:38.025Z,2.32
2018-12-10T17:24:07.001Z,2.35
2018-12-10T17:26:35.338Z,2.31
2018-12-10T17:29:03.781Z,2.26
2018-12-10T17:31:32.113Z,2.29
2018-12-10T17:34:00.402Z,2.19
2018-12-10T17:36:28.745Z,2.22
2018-12-10T17:38:57.077Z,2.20
2018-12-10T17:41:25.451Z,2.10
2018-12-10T17:43:53.829Z,1.99
2018-12-10T17:46:22.171Z,1.93
2018-12-10T17:48:50.837Z,1.75
2018-12-10T17:51:19.158Z,1.76
2018-12-10T17:53:47.775Z,1.65
2018-12-10T17:56:16.445Z,1.59
2018-12-10T17:58:45.361Z,1.52
2018-12-10T18:01:13.969Z,1.41
2018-12-10T18:03:42.689Z,1.33
2018-12-10T18:06:11.034Z,1.23
2018-12-10T18:08:39.659Z,1.23
2018-12-10T18:11:08.009Z,1.25
2018-12-10T18:13:36.630Z,1.15
2018-12-10T18:16:05.265Z,1.14
2018-12-10T18:18:33.594Z,1.00
2018-12-10T18:21:02.618Z,1.04
2018-12-10T18:23:31.089Z,0.99
2018-12-10T18:25:59.569Z,0.85
2018-12-10T18:28:28.042Z,0.90
2018-12-10T18:30:56.374Z,0.88
2018-12-10T18:33:25.009Z,0.81
2018-12-10T18:35:54.158Z,0.91
2018-12-10T18:38:22.908Z,0.89
2018-12-10T18:40:52.385Z,0.84
2018-12-10T18:43:20.721Z,0.79
2018-12-10T18:45:49.057Z,0.86
2018-12-10T18:48:17.365Z,0.75
2018-12-10T18:50:45.689Z,0.77
2018-12-10T18:53:14.026Z,0.73
2018-12-10T18:55:42.353Z,0.73
2018-12-10T18:58:10.693Z,0.77
2018-12-10T19:00:38.999Z,0.76
2018-12-10T19:03:07.390Z,0.76
2018-12-10T19:05:35.717Z,0.66
2018-12-10T19:08:04.046Z,0.66
2018-12-10T19:10:32.353Z,0.62
2018-12-10T19:13:00.665Z,0.64
2018-12-10T19:15:28.973Z,0.65
2018-12-10T19:17:57.309Z,0.64
2018-12-10T19:20:25.877Z,0.58
2018-12-10T19:22:54.666Z,0.57
2018-12-10T19:25:23.105Z,0.64
2018-12-10T19:27:51.605Z,0.76
2018-12-10T19:30:20.593Z,0.88
2018-12-10T19:32:48.948Z,0.91
2018-12-10T19:35:17.253Z,0.95
2018-12-10T19:37:45.594Z,0.91
2018-12-10T19:40:13.906Z,0.93
2018-12-10T19:42:42.504Z,1.05
2018-12-10T19:45:10.983Z,1.11
2018-12-10T19:47:39.469Z,1.14
2018-12-10T19:50:09.052Z,1.25
2018-12-10T19:52:37.388Z,1.34
2018-12-10T19:55:06.412Z,1.16
2018-12-10T19:57:34.819Z,1.02
2018-12-10T20:00:03.394Z,0.92
2018-12-10T20:02:31.753Z,0.89
2018-12-10T20:05:00.062Z,0.92
2018-12-10T20:07:28.365Z,0.89
2018-12-10T20:09:56.693Z,0.87
2018-12-10T20:12:25.012Z,0.85
2018-12-10T20:14:53.334Z,0.76
2018-12-10T20:17:21.744Z,0.71
2018-12-10T20:19:50.078Z,0.80
2018-12-10T20:22:18.449Z,0.90
2018-12-10T20:24:47.074Z,0.88
2018-12-10T20:27:15.421Z,0.69
2018-12-10T20:29:44.202Z,0.92
2018-12-10T20:32:12.651Z,0.62
2018-12-10T20:34:41.149Z,0.46
2018-12-10T20:37:09.582Z,0.35
2018-12-10T20:39:38.101Z,0.38
2018-12-10T20:42:06.577Z,0.35
2018-12-10T20:44:34.917Z,0.33
2018-12-10T20:47:03.433Z,0.27
2018-12-10T20:49:32.030Z,0.16
2018-12-10T20:52:00.494Z,0.23
2018-12-10T20:54:28.826Z,0.27
2018-12-10T20:56:57.821Z,0.22
2018-12-10T20:59:26.479Z,0.17
2018-12-10T21:01:54.798Z,0.04
2018-12-10T21:04:23.449Z,0.04
2018-12-10T21:06:51.794Z,-0.04
2018-12-10T21:09:20.113Z,0.08
2018-12-10T21:11:48.450Z,0.23
2018-12-10T21:14:16.957Z,0.12
2018-12-10T21:16:45.270Z,0.04
2018-12-10T21:19:13.822Z,-0.15
2018-12-10T21:21:42.157Z,0.04
2018-12-10T21:24:10.490Z,-0.03
2018-12-10T21:26:38.835Z,0.08
2018-12-10T21:29:07.217Z,0.18
2018-12-10T21:31:35.713Z,0.22
2018-12-10T21:34:05.193Z,0.16
2018-12-10T21:36:33.705Z,0.14
2018-12-10T21:39:02.261Z,-0.09
2018-12-10T21:41:30.657Z,0.04
2018-12-10T21:43:59.125Z,0.02
2018-12-10T21:46:27.461Z,0.07
2018-12-10T21:48:55.773Z,0.25
2018-12-10T21:51:24.094Z,0.39
2018-12-10T21:53:52.537Z,0.40
2018-12-10T21:56:20.869Z,0.32
2018-12-10T21:58:49.502Z,0.26
2018-12-10T22:01:18.145Z,0.22
2018-12-10T22:03:46.465Z,0.36
2018-12-10T22:06:16.808Z,0.47
2018-12-10T22:08:45.109Z,0.52
2018-12-10T22:11:13.423Z,0.70
2018-12-10T22:13:41.925Z,0.72
2018-12-10T22:16:10.295Z,0.78
2018-12-10T22:18:38.609Z,0.80
2018-12-10T22:21:06.937Z,0.86
2018-12-10T22:23:35.345Z,0.97
2018-12-10T22:26:03.680Z,1.04
2018-12-10T22:28:32.334Z,1.04
2018-12-10T22:31:00.790Z,1.11
2018-12-10T22:33:29.105Z,1.21
2018-12-10T22:35:57.408Z,1.35
2018-12-10T22:38:25.751Z,1.48
2018-12-10T22:40:54.062Z,1.46
2018-12-10T22:43:22.394Z,1.44
2018-12-10T22:45:50.708Z,1.42
2018-12-10T22:48:19.038Z,1.40
2018-12-10T22:50:47.613Z,1.45
2018-12-10T22:53:15.941Z,1.47
2018-12-10T22:55:44.265Z,1.42
2018-12-10T22:58:12.612Z,1.43
2018-12-10T23:00:42.250Z,1.54
2018-12-10T23:03:10.708Z,1.47
2018-12-10T23:05:39.008Z,1.58
2018-12-10T23:08:07.532Z,1.49
2018-12-10T23:10:35.844Z,1.53
2018-12-10T23:13:04.506Z,1.60
2018-12-10T23:15:32.949Z,1.59
2018-12-10T23:18:01.250Z,1.67
2018-12-10T23:20:29.928Z,1.60
2018-12-10T23:22:58.252Z,1.77
2018-12-10T23:25:26.900Z,1.76
2018-12-10T23:27:55.897Z,1.72
2018-12-10T23:30:24.377Z,1.72
2018-12-10T23:32:53.848Z,1.73
2018-12-10T23:35:22.382Z,1.79
2018-12-10T23:37:50.840Z,1.78
2018-12-10T23:40:19.334Z,1.76
2018-12-10T23:42:53.056Z,1.82
2018-12-10T23:45:21.399Z,1.86
2018-12-10T23:47:49.713Z,1.78
2018-12-10T23:50:18.360Z,1.90
2018-12-10T23:52:46.845Z,1.85
2018-12-10T23:55:15.196Z,1.90
2018-12-10T23:57:43.785Z,1.90
